29°C Temp
16°C Dewpoint
45% Humidity
Temperature
13 KM/H
8 MPH
7 KTS
250°
West South
West

Wind Speed
Clear
Conditions
Pressure 1011.85 (hPa) - 29.88 (in)
Visibility 6.0 (mi) - 9.7 (km)

Current Conditions
LIMC
Location Malpensa 50(km)
Metar :LIMC 141520Z 25007KT 200V300 CAVOK 29/16 Q1012 NOSIG
Sun 14th July 16:20 pm

Airport
  Metar Aviation API Data Provided by https://www.checkwx.com/ PHP scripts by weather34.com ©2024